sensor_id;sensor_type;location;lat;lon;timestamp;temperature;humidity
65203;HTU21D;51788;45.124;38.966;2022-08-18T00:02:26;26.32;67.88
65203;HTU21D;51788;45.124;38.966;2022-08-18T00:04:53;26.33;67.83
65203;HTU21D;51788;45.124;38.966;2022-08-18T00:07:23;26.34;67.98
65203;HTU21D;51788;45.124;38.966;2022-08-18T00:09:50;26.41;67.90
65203;HTU21D;51788;45.124;38.966;2022-08-18T00:12:43;26.49;67.95
65203;HTU21D;51788;45.124;38.966;2022-08-18T00:15:09;26.53;67.56
65203;HTU21D;51788;45.124;38.966;2022-08-18T00:17:36;26.52;67.75
65203;HTU21D;51788;45.124;38.966;2022-08-18T00:20:09;26.54;68.07
65203;HTU21D;51788;45.124;38.966;2022-08-18T00:22:36;26.57;68.18
65203;HTU21D;51788;45.124;38.966;2022-08-18T00:25:06;26.58;68.48
65203;HTU21D;51788;45.124;38.966;2022-08-18T00:27:35;26.56;68.65
65203;HTU21D;51788;45.124;38.966;2022-08-18T00:30:06;26.58;68.86
65203;HTU21D;51788;45.124;38.966;2022-08-18T00:32:36;26.57;68.95
65203;HTU21D;51788;45.124;38.966;2022-08-18T00:35:13;26.56;69.23
65203;HTU21D;51788;45.124;38.966;2022-08-18T00:37:41;26.53;69.26
65203;HTU21D;51788;45.124;38.966;2022-08-18T00:40:10;26.51;69.42
65203;HTU21D;51788;45.124;38.966;2022-08-18T00:43:04;26.50;69.65
65203;HTU21D;51788;45.124;38.966;2022-08-18T00:45:36;26.47;69.55
65203;HTU21D;51788;45.124;38.966;2022-08-18T00:48:04;26.43;69.68
65203;HTU21D;51788;45.124;38.966;2022-08-18T00:50:59;26.43;69.91
65203;HTU21D;51788;45.124;38.966;2022-08-18T00:53:48;26.39;70.02
65203;HTU21D;51788;45.124;38.966;2022-08-18T00:56:25;26.34;70.19
65203;HTU21D;51788;45.124;38.966;2022-08-18T00:59:02;26.33;70.31
65203;HTU21D;51788;45.124;38.966;2022-08-18T01:01:31;26.26;70.32
65203;HTU21D;51788;45.124;38.966;2022-08-18T01:04:06;26.21;70.62
65203;HTU21D;51788;45.124;38.966;2022-08-18T01:06:55;26.17;70.74
65203;HTU21D;51788;45.124;38.966;2022-08-18T01:09:23;26.15;70.75
65203;HTU21D;51788;45.124;38.966;2022-08-18T01:11:49;26.12;70.97
65203;HTU21D;51788;45.124;38.966;2022-08-18T01:14:16;26.10;71.13
65203;HTU21D;51788;45.124;38.966;2022-08-18T01:16:45;26.08;71.22
65203;HTU21D;51788;45.124;38.966;2022-08-18T01:19:29;26.08;71.15
65203;HTU21D;51788;45.124;38.966;2022-08-18T01:25:19;26.12;71.14
65203;HTU21D;51788;45.124;38.966;2022-08-18T01:28:05;26.10;71.16
65203;HTU21D;51788;45.124;38.966;2022-08-18T01:30:42;26.11;71.32
65203;HTU21D;51788;45.124;38.966;2022-08-18T01:33:09;26.11;71.31
65203;HTU21D;51788;45.124;38.966;2022-08-18T01:35:39;26.11;71.40
65203;HTU21D;51788;45.124;38.966;2022-08-18T01:38:07;26.09;71.45
65203;HTU21D;51788;45.124;38.966;2022-08-18T01:40:33;26.04;71.74
65203;HTU21D;51788;45.124;38.966;2022-08-18T01:43:00;26.02;71.84
65203;HTU21D;51788;45.124;38.966;2022-08-18T01:45:30;25.98;71.99
65203;HTU21D;51788;45.124;38.966;2022-08-18T01:47:58;25.94;72.09
65203;HTU21D;51788;45.124;38.966;2022-08-18T01:50:24;25.94;72.09
65203;HTU21D;51788;45.124;38.966;2022-08-18T01:52:51;25.92;72.04
65203;HTU21D;51788;45.124;38.966;2022-08-18T01:55:19;25.93;72.10
65203;HTU21D;51788;45.124;38.966;2022-08-18T01:57:45;25.94;72.15
65203;HTU21D;51788;45.124;38.966;2022-08-18T02:00:13;25.92;72.27
65203;HTU21D;51788;45.124;38.966;2022-08-18T02:02:40;25.91;72.27
65203;HTU21D;51788;45.124;38.966;2022-08-18T02:05:17;25.90;72.39
65203;HTU21D;51788;45.124;38.966;2022-08-18T02:07:45;25.89;72.36
65203;HTU21D;51788;45.124;38.966;2022-08-18T02:10:12;25.87;72.55
65203;HTU21D;51788;45.124;38.966;2022-08-18T02:12:40;25.84;72.61
65203;HTU21D;51788;45.124;38.966;2022-08-18T02:15:06;25.82;72.74
65203;HTU21D;51788;45.124;38.966;2022-08-18T02:17:37;25.79;72.82
65203;HTU21D;51788;45.124;38.966;2022-08-18T02:20:04;25.78;72.87
65203;HTU21D;51788;45.124;38.966;2022-08-18T02:22:31;25.79;72.91
65203;HTU21D;51788;45.124;38.966;2022-08-18T02:24:57;25.79;72.94
65203;HTU21D;51788;45.124;38.966;2022-08-18T02:27:23;25.77;73.03
65203;HTU21D;51788;45.124;38.966;2022-08-18T02:29:49;25.77;73.00
65203;HTU21D;51788;45.124;38.966;2022-08-18T02:32:15;25.77;73.07
65203;HTU21D;51788;45.124;38.966;2022-08-18T02:34:41;25.79;73.08
65203;HTU21D;51788;45.124;38.966;2022-08-18T02:37:07;25.81;73.03
65203;HTU21D;51788;45.124;38.966;2022-08-18T02:39:35;25.84;72.97
65203;HTU21D;51788;45.124;38.966;2022-08-18T02:42:04;25.86;72.95
65203;HTU21D;51788;45.124;38.966;2022-08-18T02:44:30;25.89;72.83
65203;HTU21D;51788;45.124;38.966;2022-08-18T02:46:57;25.91;72.70
65203;HTU21D;51788;45.124;38.966;2022-08-18T02:49:23;25.93;72.65
65203;HTU21D;51788;45.124;38.966;2022-08-18T02:51:52;25.96;72.61
65203;HTU21D;51788;45.124;38.966;2022-08-18T02:54:20;25.99;72.44
65203;HTU21D;51788;45.124;38.966;2022-08-18T02:56:48;26.02;72.34
65203;HTU21D;51788;45.124;38.966;2022-08-18T02:59:21;26.05;72.29
65203;HTU21D;51788;45.124;38.966;2022-08-18T03:01:51;26.08;72.22
65203;HTU21D;51788;45.124;38.966;2022-08-18T03:04:20;26.09;72.18
65203;HTU21D;51788;45.124;38.966;2022-08-18T03:06:47;26.09;72.19
65203;HTU21D;51788;45.124;38.966;2022-08-18T03:09:16;26.07;72.32
65203;HTU21D;51788;45.124;38.966;2022-08-18T03:11:43;26.05;72.42
65203;HTU21D;51788;45.124;38.966;2022-08-18T03:14:10;26.07;72.40
65203;HTU21D;51788;45.124;38.966;2022-08-18T03:16:44;26.08;72.51
65203;HTU21D;51788;45.124;38.966;2022-08-18T03:19:11;26.10;72.36
65203;HTU21D;51788;45.124;38.966;2022-08-18T03:21:39;26.08;72.36
65203;HTU21D;51788;45.124;38.966;2022-08-18T03:24:05;26.07;72.38
65203;HTU21D;51788;45.124;38.966;2022-08-18T03:26:32;26.10;72.38
65203;HTU21D;51788;45.124;38.966;2022-08-18T03:28:59;26.10;72.35
65203;HTU21D;51788;45.124;38.966;2022-08-18T03:31:27;26.13;72.35
65203;HTU21D;51788;45.124;38.966;2022-08-18T03:33:55;26.16;72.32
65203;HTU21D;51788;45.124;38.966;2022-08-18T03:36:25;26.16;72.35
65203;HTU21D;51788;45.124;38.966;2022-08-18T03:38:52;26.11;72.43
65203;HTU21D;51788;45.124;38.966;2022-08-18T03:41:22;26.02;72.72
65203;HTU21D;51788;45.124;38.966;2022-08-18T03:43:50;25.88;72.97
65203;HTU21D;51788;45.124;38.966;2022-08-18T03:46:17;25.86;73.12
65203;HTU21D;51788;45.124;38.966;2022-08-18T03:48:45;25.90;73.09
65203;HTU21D;51788;45.124;38.966;2022-08-18T03:51:23;25.98;73.19
65203;HTU21D;51788;45.124;38.966;2022-08-18T03:53:51;26.03;72.97
65203;HTU21D;51788;45.124;38.966;2022-08-18T03:56:20;26.05;72.78
65203;HTU21D;51788;45.124;38.966;2022-08-18T03:58:54;26.09;72.68
65203;HTU21D;51788;45.124;38.966;2022-08-18T04:01:23;26.07;72.55
65203;HTU21D;51788;45.124;38.966;2022-08-18T04:03:56;26.09;72.49
65203;HTU21D;51788;45.124;38.966;2022-08-18T04:06:28;26.17;72.29
65203;HTU21D;51788;45.124;38.966;2022-08-18T04:08:55;26.22;71.98
65203;HTU21D;51788;45.124;38.966;2022-08-18T04:11:22;26.20;71.91
65203;HTU21D;51788;45.124;38.966;2022-08-18T04:13:49;26.21;71.84
65203;HTU21D;51788;45.124;38.966;2022-08-18T04:16:16;26.09;72.03
65203;HTU21D;51788;45.124;38.966;2022-08-18T04:18:42;25.86;72.54
65203;HTU21D;51788;45.124;38.966;2022-08-18T04:21:10;25.68;73.05
65203;HTU21D;51788;45.124;38.966;2022-08-18T04:23:39;25.62;73.26
65203;HTU21D;51788;45.124;38.966;2022-08-18T04:26:06;25.61;73.27
65203;HTU21D;51788;45.124;38.966;2022-08-18T04:28:34;25.71;73.15
65203;HTU21D;51788;45.124;38.966;2022-08-18T04:31:06;25.87;72.65
65203;HTU21D;51788;45.124;38.966;2022-08-18T04:33:32;25.92;72.42
65203;HTU21D;51788;45.124;38.966;2022-08-18T04:35:58;25.90;72.27
65203;HTU21D;51788;45.124;38.966;2022-08-18T04:38:31;25.98;72.00
65203;HTU21D;51788;45.124;38.966;2022-08-18T04:40:57;25.98;71.90
65203;HTU21D;51788;45.124;38.966;2022-08-18T04:43:23;26.06;71.91
65203;HTU21D;51788;45.124;38.966;2022-08-18T04:45:49;26.38;71.32
65203;HTU21D;51788;45.124;38.966;2022-08-18T04:48:16;26.77;70.35
65203;HTU21D;51788;45.124;38.966;2022-08-18T04:50:42;26.96;69.84
65203;HTU21D;51788;45.124;38.966;2022-08-18T04:53:09;27.04;69.82
65203;HTU21D;51788;45.124;38.966;2022-08-18T04:55:55;27.14;69.72
65203;HTU21D;51788;45.124;38.966;2022-08-18T04:58:22;27.34;69.22
65203;HTU21D;51788;45.124;38.966;2022-08-18T05:00:59;27.44;68.98
65203;HTU21D;51788;45.124;38.966;2022-08-18T05:03:26;27.37;69.27
65203;HTU21D;51788;45.124;38.966;2022-08-18T05:05:54;27.34;68.97
65203;HTU21D;51788;45.124;38.966;2022-08-18T05:08:20;27.07;69.53
65203;HTU21D;51788;45.124;38.966;2022-08-18T05:10:51;26.95;69.97
65203;HTU21D;51788;45.124;38.966;2022-08-18T05:13:17;26.97;69.76
65203;HTU21D;51788;45.124;38.966;2022-08-18T05:15:44;26.89;69.87
65203;HTU21D;51788;45.124;38.966;2022-08-18T05:18:10;26.91;69.77
65203;HTU21D;51788;45.124;38.966;2022-08-18T05:20:37;26.97;69.54
65203;HTU21D;51788;45.124;38.966;2022-08-18T05:23:05;26.99;69.49
65203;HTU21D;51788;45.124;38.966;2022-08-18T05:25:31;27.10;69.19
65203;HTU21D;51788;45.124;38.966;2022-08-18T05:27:57;27.19;69.13
65203;HTU21D;51788;45.124;38.966;2022-08-18T05:30:23;27.29;68.75
65203;HTU21D;51788;45.124;38.966;2022-08-18T05:32:49;27.39;68.57
65203;HTU21D;51788;45.124;38.966;2022-08-18T05:35:29;27.55;68.42
65203;HTU21D;51788;45.124;38.966;2022-08-18T05:40:34;27.96;67.36
65203;HTU21D;51788;45.124;38.966;2022-08-18T05:43:02;28.05;67.13
65203;HTU21D;51788;45.124;38.966;2022-08-18T05:45:29;28.25;66.61
65203;HTU21D;51788;45.124;38.966;2022-08-18T05:47:57;28.40;66.04
65203;HTU21D;51788;45.124;38.966;2022-08-18T05:50:28;28.43;65.98
65203;HTU21D;51788;45.124;38.966;2022-08-18T05:53:00;28.44;65.95
65203;HTU21D;51788;45.124;38.966;2022-08-18T05:58:50;28.31;65.75
65203;HTU21D;51788;45.124;38.966;2022-08-18T06:01:21;28.18;65.85
65203;HTU21D;51788;45.124;38.966;2022-08-18T06:03:52;28.03;66.04
65203;HTU21D;51788;45.124;38.966;2022-08-18T06:06:25;27.94;66.10
65203;HTU21D;51788;45.124;38.966;2022-08-18T06:11:50;27.85;66.24
65203;HTU21D;51788;45.124;38.966;2022-08-18T06:14:17;27.83;66.08
65203;HTU21D;51788;45.124;38.966;2022-08-18T06:17:05;27.82;66.11
65203;HTU21D;51788;45.124;38.966;2022-08-18T06:20:11;28.05;65.37
65203;HTU21D;51788;45.124;38.966;2022-08-18T06:29:20;28.16;64.75
65203;HTU21D;51788;45.124;38.966;2022-08-18T06:37:32;27.97;65.11
65203;HTU21D;51788;45.124;38.966;2022-08-18T06:39:59;27.99;65.14
65203;HTU21D;51788;45.124;38.966;2022-08-18T06:42:27;28.14;64.82
65203;HTU21D;51788;45.124;38.966;2022-08-18T06:45:09;28.26;63.79
65203;HTU21D;51788;45.124;38.966;2022-08-18T06:47:56;28.35;63.16
65203;HTU21D;51788;45.124;38.966;2022-08-18T06:53:03;28.77;62.47
65203;HTU21D;51788;45.124;38.966;2022-08-18T06:55:35;28.83;62.61
65203;HTU21D;51788;45.124;38.966;2022-08-18T07:00:41;28.97;62.06
65203;HTU21D;51788;45.124;38.966;2022-08-18T07:03:13;29.12;61.52
65203;HTU21D;51788;45.124;38.966;2022-08-18T07:06:03;29.21;61.55
65203;HTU21D;51788;45.124;38.966;2022-08-18T07:08:33;29.13;61.67
65203;HTU21D;51788;45.124;38.966;2022-08-18T07:13:45;29.16;61.63
65203;HTU21D;51788;45.124;38.966;2022-08-18T07:16:33;29.38;60.95
65203;HTU21D;51788;45.124;38.966;2022-08-18T07:19:19;29.65;60.62
65203;HTU21D;51788;45.124;38.966;2022-08-18T07:22:04;29.73;60.42
65203;HTU21D;51788;45.124;38.966;2022-08-18T07:24:35;29.65;60.63
65203;HTU21D;51788;45.124;38.966;2022-08-18T07:29:57;29.59;60.34
65203;HTU21D;51788;45.124;38.966;2022-08-18T07:32:29;29.70;60.01
65203;HTU21D;51788;45.124;38.966;2022-08-18T07:34:57;29.75;59.86
65203;HTU21D;51788;45.124;38.966;2022-08-18T07:37:34;29.86;59.39
65203;HTU21D;51788;45.124;38.966;2022-08-18T07:42:39;30.04;59.11
65203;HTU21D;51788;45.124;38.966;2022-08-18T07:45:26;30.12;58.75
65203;HTU21D;51788;45.124;38.966;2022-08-18T07:48:06;29.91;59.03
65203;HTU21D;51788;45.124;38.966;2022-08-18T07:50:47;29.72;59.53
65203;HTU21D;51788;45.124;38.966;2022-08-18T07:53:31;29.56;59.70
65203;HTU21D;51788;45.124;38.966;2022-08-18T07:56:11;29.54;59.85
65203;HTU21D;51788;45.124;38.966;2022-08-18T08:07:09;29.29;60.20
65203;HTU21D;51788;45.124;38.966;2022-08-18T08:12:26;29.59;59.73
65203;HTU21D;51788;45.124;38.966;2022-08-18T08:20:35;30.07;57.94
65203;HTU21D;51788;45.124;38.966;2022-08-18T08:23:29;30.16;57.93
65203;HTU21D;51788;45.124;38.966;2022-08-18T08:32:14;30.19;57.37
65203;HTU21D;51788;45.124;38.966;2022-08-18T08:34:50;30.28;57.23
65203;HTU21D;51788;45.124;38.966;2022-08-18T08:37:44;30.32;57.05
65203;HTU21D;51788;45.124;38.966;2022-08-18T08:40:20;30.39;56.92
65203;HTU21D;51788;45.124;38.966;2022-08-18T08:43:23;30.54;56.72
65203;HTU21D;51788;45.124;38.966;2022-08-18T08:45:59;30.68;56.33
65203;HTU21D;51788;45.124;38.966;2022-08-18T08:48:30;30.66;56.25
65203;HTU21D;51788;45.124;38.966;2022-08-18T08:51:02;30.57;56.23
65203;HTU21D;51788;45.124;38.966;2022-08-18T08:53:38;30.54;55.94
65203;HTU21D;51788;45.124;38.966;2022-08-18T08:56:12;30.33;56.69
65203;HTU21D;51788;45.124;38.966;2022-08-18T08:58:45;30.46;56.48
65203;HTU21D;51788;45.124;38.966;2022-08-18T09:04:01;30.71;55.54
65203;HTU21D;51788;45.124;38.966;2022-08-18T09:09:20;30.86;54.75
65203;HTU21D;51788;45.124;38.966;2022-08-18T09:12:04;30.78;53.95
65203;HTU21D;51788;45.124;38.966;2022-08-18T09:23:19;30.74;53.97
65203;HTU21D;51788;45.124;38.966;2022-08-18T09:25:50;30.83;53.79
65203;HTU21D;51788;45.124;38.966;2022-08-18T09:36:04;30.82;53.73
65203;HTU21D;51788;45.124;38.966;2022-08-18T09:38:36;30.80;53.39
65203;HTU21D;51788;45.124;38.966;2022-08-18T09:41:34;30.81;53.23
65203;HTU21D;51788;45.124;38.966;2022-08-18T09:44:08;30.80;53.14
65203;HTU21D;51788;45.124;38.966;2022-08-18T09:46:55;30.77;53.07
65203;HTU21D;51788;45.124;38.966;2022-08-18T09:51:53;30.64;53.01
65203;HTU21D;51788;45.124;38.966;2022-08-18T09:54:22;30.63;53.16
65203;HTU21D;51788;45.124;38.966;2022-08-18T10:02:00;30.80;53.05
65203;HTU21D;51788;45.124;38.966;2022-08-18T10:04:41;30.86;53.22
65203;HTU21D;51788;45.124;38.966;2022-08-18T10:07:27;31.14;52.49
65203;HTU21D;51788;45.124;38.966;2022-08-18T10:10:28;31.34;52.14
65203;HTU21D;51788;45.124;38.966;2022-08-18T10:24:22;31.88;50.52
65203;HTU21D;51788;45.124;38.966;2022-08-18T10:42:23;31.22;51.86
65203;HTU21D;51788;45.124;38.966;2022-08-18T10:44:52;31.26;51.93
65203;HTU21D;51788;45.124;38.966;2022-08-18T10:47:23;31.38;51.78
65203;HTU21D;51788;45.124;38.966;2022-08-18T10:49:49;31.43;51.61
65203;HTU21D;51788;45.124;38.966;2022-08-18T10:57:21;31.55;51.03
65203;HTU21D;51788;45.124;38.966;2022-08-18T11:05:26;31.42;50.65
65203;HTU21D;51788;45.124;38.966;2022-08-18T11:08:05;31.43;50.93
65203;HTU21D;51788;45.124;38.966;2022-08-18T11:10:41;31.58;51.22
65203;HTU21D;51788;45.124;38.966;2022-08-18T11:13:21;31.76;50.67
65203;HTU21D;51788;45.124;38.966;2022-08-18T11:18:47;31.81;50.05
65203;HTU21D;51788;45.124;38.966;2022-08-18T11:26:52;32.16;49.56
65203;HTU21D;51788;45.124;38.966;2022-08-18T11:31:50;32.26;49.30
65203;HTU21D;51788;45.124;38.966;2022-08-18T11:34:25;32.27;49.65
65203;HTU21D;51788;45.124;38.966;2022-08-18T11:37:03;32.44;49.35
65203;HTU21D;51788;45.124;38.966;2022-08-18T11:39:30;32.31;49.45
65203;HTU21D;51788;45.124;38.966;2022-08-18T11:41:57;32.24;49.33
65203;HTU21D;51788;45.124;38.966;2022-08-18T11:44:28;32.16;49.15
65203;HTU21D;51788;45.124;38.966;2022-08-18T11:47:17;32.08;49.46
65203;HTU21D;51788;45.124;38.966;2022-08-18T11:49:51;32.09;49.34
65203;HTU21D;51788;45.124;38.966;2022-08-18T11:52:24;32.08;49.37
65203;HTU21D;51788;45.124;38.966;2022-08-18T11:58:03;32.02;49.47
65203;HTU21D;51788;45.124;38.966;2022-08-18T12:05:53;32.10;49.35
65203;HTU21D;51788;45.124;38.966;2022-08-18T12:08:35;32.27;48.73
65203;HTU21D;51788;45.124;38.966;2022-08-18T12:11:15;32.37;49.15
65203;HTU21D;51788;45.124;38.966;2022-08-18T12:13:44;32.31;49.27
65203;HTU21D;51788;45.124;38.966;2022-08-18T12:16:39;32.31;48.91
65203;HTU21D;51788;45.124;38.966;2022-08-18T12:19:08;32.15;49.32
65203;HTU21D;51788;45.124;38.966;2022-08-18T12:21:43;32.10;49.53
65203;HTU21D;51788;45.124;38.966;2022-08-18T12:24:31;32.11;49.50
65203;HTU21D;51788;45.124;38.966;2022-08-18T12:26:58;32.24;49.31
65203;HTU21D;51788;45.124;38.966;2022-08-18T12:29:25;32.30;49.17
65203;HTU21D;51788;45.124;38.966;2022-08-18T12:31:54;32.44;48.80
65203;HTU21D;51788;45.124;38.966;2022-08-18T12:34:22;32.64;48.49
65203;HTU21D;51788;45.124;38.966;2022-08-18T12:36:56;32.71;48.18
65203;HTU21D;51788;45.124;38.966;2022-08-18T12:39:22;32.45;48.08
65203;HTU21D;51788;45.124;38.966;2022-08-18T12:41:48;32.18;48.39
65203;HTU21D;51788;45.124;38.966;2022-08-18T12:44:14;32.02;48.68
65203;HTU21D;51788;45.124;38.966;2022-08-18T12:46:41;31.98;48.73
65203;HTU21D;51788;45.124;38.966;2022-08-18T12:49:14;31.90;48.75
65203;HTU21D;51788;45.124;38.966;2022-08-18T12:51:41;31.82;49.07
65203;HTU21D;51788;45.124;38.966;2022-08-18T12:54:07;31.80;49.11
65203;HTU21D;51788;45.124;38.966;2022-08-18T12:56:33;31.83;49.29
65203;HTU21D;51788;45.124;38.966;2022-08-18T12:59:02;31.90;49.06
65203;HTU21D;51788;45.124;38.966;2022-08-18T13:01:29;31.89;48.98
65203;HTU21D;51788;45.124;38.966;2022-08-18T13:03:55;31.92;49.02
65203;HTU21D;51788;45.124;38.966;2022-08-18T13:06:23;31.99;48.92
65203;HTU21D;51788;45.124;38.966;2022-08-18T13:08:49;31.95;48.91
65203;HTU21D;51788;45.124;38.966;2022-08-18T13:11:18;31.89;48.93
65203;HTU21D;51788;45.124;38.966;2022-08-18T13:13:45;31.93;49.26
65203;HTU21D;51788;45.124;38.966;2022-08-18T13:16:11;31.96;49.55
65203;HTU21D;51788;45.124;38.966;2022-08-18T13:18:39;31.98;49.44
65203;HTU21D;51788;45.124;38.966;2022-08-18T13:21:09;31.97;49.04
65203;HTU21D;51788;45.124;38.966;2022-08-18T13:23:35;31.95;49.14
65203;HTU21D;51788;45.124;38.966;2022-08-18T13:26:03;31.97;48.87
65203;HTU21D;51788;45.124;38.966;2022-08-18T13:28:32;31.92;48.66
65203;HTU21D;51788;45.124;38.966;2022-08-18T13:30:58;31.85;48.81
65203;HTU21D;51788;45.124;38.966;2022-08-18T13:33:25;31.84;48.90
65203;HTU21D;51788;45.124;38.966;2022-08-18T13:35:52;31.87;48.89
65203;HTU21D;51788;45.124;38.966;2022-08-18T13:38:18;31.89;48.80
65203;HTU21D;51788;45.124;38.966;2022-08-18T13:40:50;31.88;48.81
65203;HTU21D;51788;45.124;38.966;2022-08-18T13:43:19;31.85;48.79
65203;HTU21D;51788;45.124;38.966;2022-08-18T13:45:46;31.84;48.75
65203;HTU21D;51788;45.124;38.966;2022-08-18T13:48:15;31.83;48.86
65203;HTU21D;51788;45.124;38.966;2022-08-18T13:50:43;31.83;48.95
65203;HTU21D;51788;45.124;38.966;2022-08-18T13:53:13;31.85;49.12
65203;HTU21D;51788;45.124;38.966;2022-08-18T13:55:40;31.89;49.15
65203;HTU21D;51788;45.124;38.966;2022-08-18T13:58:06;31.94;49.37
65203;HTU21D;51788;45.124;38.966;2022-08-18T14:00:33;31.95;49.30
65203;HTU21D;51788;45.124;38.966;2022-08-18T14:03:00;31.97;49.21
65203;HTU21D;51788;45.124;38.966;2022-08-18T14:05:26;31.97;48.78
65203;HTU21D;51788;45.124;38.966;2022-08-18T14:07:53;31.95;48.76
65203;HTU21D;51788;45.124;38.966;2022-08-18T14:10:19;31.93;48.95
65203;HTU21D;51788;45.124;38.966;2022-08-18T14:12:45;31.93;48.92
65203;HTU21D;51788;45.124;38.966;2022-08-18T14:15:14;31.94;48.79
65203;HTU21D;51788;45.124;38.966;2022-08-18T14:17:40;31.93;48.80
65203;HTU21D;51788;45.124;38.966;2022-08-18T14:20:07;31.88;48.98
65203;HTU21D;51788;45.124;38.966;2022-08-18T14:22:54;31.86;49.46
65203;HTU21D;51788;45.124;38.966;2022-08-18T14:25:39;31.85;49.83
65203;HTU21D;51788;45.124;38.966;2022-08-18T14:28:24;31.93;50.02
65203;HTU21D;51788;45.124;38.966;2022-08-18T14:30:50;31.99;50.05
65203;HTU21D;51788;45.124;38.966;2022-08-18T14:33:19;32.00;49.95
65203;HTU21D;51788;45.124;38.966;2022-08-18T14:35:46;31.95;49.89
65203;HTU21D;51788;45.124;38.966;2022-08-18T14:38:13;31.95;49.92
65203;HTU21D;51788;45.124;38.966;2022-08-18T14:40:40;31.87;49.95
65203;HTU21D;51788;45.124;38.966;2022-08-18T14:43:07;31.83;50.18
65203;HTU21D;51788;45.124;38.966;2022-08-18T14:45:34;31.81;50.32
65203;HTU21D;51788;45.124;38.966;2022-08-18T14:48:01;31.75;50.34
65203;HTU21D;51788;45.124;38.966;2022-08-18T14:50:27;31.76;50.28
65203;HTU21D;51788;45.124;38.966;2022-08-18T14:52:54;31.82;50.22
65203;HTU21D;51788;45.124;38.966;2022-08-18T14:55:20;31.82;50.27
65203;HTU21D;51788;45.124;38.966;2022-08-18T14:57:46;31.83;50.11
65203;HTU21D;51788;45.124;38.966;2022-08-18T15:00:16;31.74;50.28
65203;HTU21D;51788;45.124;38.966;2022-08-18T15:02:44;31.67;50.41
65203;HTU21D;51788;45.124;38.966;2022-08-18T15:05:11;31.65;50.56
65203;HTU21D;51788;45.124;38.966;2022-08-18T15:07:38;31.64;50.56
65203;HTU21D;51788;45.124;38.966;2022-08-18T15:10:06;31.57;50.68
65203;HTU21D;51788;45.124;38.966;2022-08-18T15:12:32;31.54;50.80
65203;HTU21D;51788;45.124;38.966;2022-08-18T15:14:58;31.49;50.87
65203;HTU21D;51788;45.124;38.966;2022-08-18T15:17:25;31.45;50.91
65203;HTU21D;51788;45.124;38.966;2022-08-18T15:19:52;31.41;50.95
65203;HTU21D;51788;45.124;38.966;2022-08-18T15:22:19;31.38;51.03
65203;HTU21D;51788;45.124;38.966;2022-08-18T15:25:05;31.35;51.01
65203;HTU21D;51788;45.124;38.966;2022-08-18T15:27:50;31.30;51.07
65203;HTU21D;51788;45.124;38.966;2022-08-18T15:30:17;31.27;51.10
65203;HTU21D;51788;45.124;38.966;2022-08-18T15:32:44;31.21;51.13
65203;HTU21D;51788;45.124;38.966;2022-08-18T15:35:11;31.15;51.24
65203;HTU21D;51788;45.124;38.966;2022-08-18T15:37:42;31.12;51.23
65203;HTU21D;51788;45.124;38.966;2022-08-18T15:40:13;31.06;51.30
65203;HTU21D;51788;45.124;38.966;2022-08-18T15:42:51;31.01;51.46
65203;HTU21D;51788;45.124;38.966;2022-08-18T15:45:21;30.95;51.56
65203;HTU21D;51788;45.124;38.966;2022-08-18T15:47:51;30.90;51.94
65203;HTU21D;51788;45.124;38.966;2022-08-18T15:50:17;30.82;52.45
65203;HTU21D;51788;45.124;38.966;2022-08-18T15:52:54;30.77;52.64
65203;HTU21D;51788;45.124;38.966;2022-08-18T15:55:24;30.69;52.85
65203;HTU21D;51788;45.124;38.966;2022-08-18T15:57:51;30.62;53.20
65203;HTU21D;51788;45.124;38.966;2022-08-18T16:00:18;30.53;53.52
65203;HTU21D;51788;45.124;38.966;2022-08-18T16:02:56;30.47;53.85
65203;HTU21D;51788;45.124;38.966;2022-08-18T16:05:26;30.38;54.04
65203;HTU21D;51788;45.124;38.966;2022-08-18T16:07:53;30.32;54.21
65203;HTU21D;51788;45.124;38.966;2022-08-18T16:10:23;30.25;54.47
65203;HTU21D;51788;45.124;38.966;2022-08-18T16:12:49;30.20;54.62
65203;HTU21D;51788;45.124;38.966;2022-08-18T16:15:21;30.12;54.86
65203;HTU21D;51788;45.124;38.966;2022-08-18T16:17:48;30.06;54.99
65203;HTU21D;51788;45.124;38.966;2022-08-18T16:20:15;30.00;55.17
65203;HTU21D;51788;45.124;38.966;2022-08-18T16:22:44;29.94;55.23
65203;HTU21D;51788;45.124;38.966;2022-08-18T16:25:10;29.88;55.37
65203;HTU21D;51788;45.124;38.966;2022-08-18T16:27:37;29.81;55.46
65203;HTU21D;51788;45.124;38.966;2022-08-18T16:30:11;29.75;55.68
65203;HTU21D;51788;45.124;38.966;2022-08-18T16:32:37;29.70;55.78
65203;HTU21D;51788;45.124;38.966;2022-08-18T16:35:04;29.65;55.83
65203;HTU21D;51788;45.124;38.966;2022-08-18T16:37:30;29.63;55.89
65203;HTU21D;51788;45.124;38.966;2022-08-18T16:39:57;29.60;55.89
65203;HTU21D;51788;45.124;38.966;2022-08-18T16:42:23;29.54;55.93
65203;HTU21D;51788;45.124;38.966;2022-08-18T16:44:49;29.51;55.94
65203;HTU21D;51788;45.124;38.966;2022-08-18T16:47:15;29.48;55.97
65203;HTU21D;51788;45.124;38.966;2022-08-18T16:49:43;29.47;55.94
65203;HTU21D;51788;45.124;38.966;2022-08-18T16:52:10;29.43;56.07
65203;HTU21D;51788;45.124;38.966;2022-08-18T16:54:37;29.42;56.11
65203;HTU21D;51788;45.124;38.966;2022-08-18T16:57:04;29.38;56.11
65203;HTU21D;51788;45.124;38.966;2022-08-18T16:59:31;29.36;56.22
65203;HTU21D;51788;45.124;38.966;2022-08-18T17:02:15;29.31;56.18
65203;HTU21D;51788;45.124;38.966;2022-08-18T17:05:00;29.28;56.16
65203;HTU21D;51788;45.124;38.966;2022-08-18T17:07:31;29.27;56.34
65203;HTU21D;51788;45.124;38.966;2022-08-18T17:09:58;29.29;56.26
65203;HTU21D;51788;45.124;38.966;2022-08-18T17:12:25;29.31;56.20
65203;HTU21D;51788;45.124;38.966;2022-08-18T17:14:51;29.29;56.27
65203;HTU21D;51788;45.124;38.966;2022-08-18T17:17:19;29.11;56.65
65203;HTU21D;51788;45.124;38.966;2022-08-18T17:19:46;28.94;57.11
65203;HTU21D;51788;45.124;38.966;2022-08-18T17:22:13;28.82;57.48
65203;HTU21D;51788;45.124;38.966;2022-08-18T17:24:40;28.65;57.90
65203;HTU21D;51788;45.124;38.966;2022-08-18T17:27:15;28.49;58.33
65203;HTU21D;51788;45.124;38.966;2022-08-18T17:29:49;28.39;58.48
65203;HTU21D;51788;45.124;38.966;2022-08-18T17:32:29;28.28;58.83
65203;HTU21D;51788;45.124;38.966;2022-08-18T17:35:22;28.18;59.00
65203;HTU21D;51788;45.124;38.966;2022-08-18T17:40:51;28.00;59.47
65203;HTU21D;51788;45.124;38.966;2022-08-18T17:43:24;27.97;59.56
65203;HTU21D;51788;45.124;38.966;2022-08-18T17:46:00;27.96;59.77
65203;HTU21D;51788;45.124;38.966;2022-08-18T17:48:31;27.87;59.92
65203;HTU21D;51788;45.124;38.966;2022-08-18T17:51:10;27.82;60.22
65203;HTU21D;51788;45.124;38.966;2022-08-18T17:53:57;27.81;60.22
65203;HTU21D;51788;45.124;38.966;2022-08-18T17:56:30;27.82;60.38
65203;HTU21D;51788;45.124;38.966;2022-08-18T17:59:09;27.80;60.47